createdAt,value
2022-09-14T00:01:27.106Z,77.00
2022-09-14T00:04:03.994Z,76.40
2022-09-14T00:06:31.407Z,76.40
2022-09-14T00:09:00.779Z,76.30
2022-09-14T00:11:30.595Z,76.30
2022-09-14T00:13:59.109Z,76.30
2022-09-14T00:16:35.256Z,76.40
2022-09-14T00:19:06.162Z,76.40
2022-09-14T00:21:37.716Z,76.50
2022-09-14T00:24:07.320Z,76.40
2022-09-14T00:26:34.401Z,76.30
2022-09-14T00:29:05.363Z,76.30
2022-09-14T00:31:34.912Z,76.40
2022-09-14T00:34:03.171Z,76.40
2022-09-14T00:36:31.499Z,76.40
2022-09-14T00:39:00.668Z,76.50
2022-09-14T00:41:31.986Z,76.60
2022-09-14T00:44:01.616Z,76.80
2022-09-14T00:46:43.982Z,76.90
2022-09-14T00:49:16.676Z,77.00
2022-09-14T00:52:09.541Z,77.20
2022-09-14T00:54:49.076Z,77.40
2022-09-14T00:57:17.437Z,78.30
2022-09-14T00:59:46.326Z,77.60
2022-09-14T01:02:15.044Z,77.80
2022-09-14T01:04:43.424Z,77.80
2022-09-14T01:07:22.340Z,77.90
2022-09-14T01:10:13.988Z,78.00
2022-09-14T01:12:59.731Z,78.00
2022-09-14T01:15:29.722Z,78.10
2022-09-14T01:18:33.119Z,78.20
2022-09-14T01:21:24.575Z,78.40
2022-09-14T01:24:16.371Z,78.50
2022-09-14T01:26:46.483Z,78.80
2022-09-14T01:29:49.603Z,78.70
2022-09-14T01:32:27.337Z,79.00
2022-09-14T01:35:07.788Z,78.90
2022-09-14T01:37:43.117Z,79.00
2022-09-14T01:40:36.724Z,79.10
2022-09-14T01:43:29.817Z,79.20
2022-09-14T01:46:01.032Z,79.30
2022-09-14T01:48:35.964Z,79.50
2022-09-14T01:51:12.607Z,79.50
2022-09-14T01:54:05.337Z,79.90
2022-09-14T01:56:43.984Z,79.60
2022-09-14T01:59:31.195Z,79.70
2022-09-14T02:02:12.701Z,79.70
2022-09-14T02:05:03.352Z,79.70
2022-09-14T02:07:30.521Z,79.80
2022-09-14T02:09:57.431Z,79.70
2022-09-14T02:12:24.575Z,79.90
2022-09-14T02:14:53.976Z,80.00
2022-09-14T02:17:21.991Z,80.10
2022-09-14T02:19:53.639Z,80.20
2022-09-14T02:22:20.591Z,81.00
2022-09-14T02:24:48.343Z,80.20
2022-09-14T02:27:15.542Z,80.40
2022-09-14T02:29:42.680Z,80.40
2022-09-14T02:32:26.568Z,80.50
2022-09-14T02:34:53.400Z,80.80
2022-09-14T02:37:26.127Z,80.40
2022-09-14T02:40:13.656Z,80.80
2022-09-14T02:42:52.866Z,81.20
2022-09-14T02:45:41.362Z,81.30
2022-09-14T02:48:37.578Z,81.40
2022-09-14T02:51:20.335Z,81.40
2022-09-14T02:53:59.721Z,81.50
2022-09-14T02:56:28.549Z,81.60
2022-09-14T02:58:56.014Z,81.60
2022-09-14T03:01:24.415Z,81.60
2022-09-14T03:03:51.380Z,81.70
2022-09-14T03:06:18.446Z,81.70
2022-09-14T03:08:45.388Z,81.80
2022-09-14T03:11:12.932Z,81.90
2022-09-14T03:13:40.022Z,82.00
2022-09-14T03:16:12.624Z,82.00
2022-09-14T03:18:40.013Z,82.20
2022-09-14T03:21:10.469Z,82.10
2022-09-14T03:23:39.417Z,82.20
2022-09-14T03:26:12.153Z,82.30
2022-09-14T03:28:39.687Z,82.40
2022-09-14T03:31:09.803Z,82.40
2022-09-14T03:33:37.215Z,82.60
2022-09-14T03:36:15.846Z,82.60
2022-09-14T03:38:44.428Z,82.70
2022-09-14T03:41:12.110Z,82.70
2022-09-14T03:43:39.385Z,82.80
2022-09-14T03:46:12.272Z,83.00
2022-09-14T03:48:39.434Z,83.00
2022-09-14T03:51:07.803Z,82.90
2022-09-14T03:53:35.160Z,83.10
2022-09-14T03:56:06.139Z,83.10
2022-09-14T03:58:33.199Z,83.10
2022-09-14T04:01:07.251Z,83.20
2022-09-14T04:03:34.309Z,83.20
2022-09-14T04:06:05.314Z,83.20
2022-09-14T04:08:34.651Z,83.40
2022-09-14T04:11:07.891Z,83.40
2022-09-14T04:13:35.203Z,83.50
2022-09-14T04:16:02.361Z,83.60
2022-09-14T04:18:29.308Z,83.80
2022-09-14T04:21:08.414Z,83.90
2022-09-14T04:23:56.624Z,83.90
2022-09-14T04:26:26.301Z,84.00
2022-09-14T04:28:53.960Z,84.20
2022-09-14T04:31:21.083Z,84.30
2022-09-14T04:33:50.597Z,84.30
2022-09-14T04:36:20.819Z,84.30
2022-09-14T04:38:48.096Z,84.30
2022-09-14T04:41:17.960Z,84.20
2022-09-14T04:43:46.327Z,84.20
2022-09-14T04:46:16.048Z,84.20
2022-09-14T04:48:43.415Z,84.10
2022-09-14T04:51:19.076Z,84.00
2022-09-14T04:53:48.038Z,84.00
2022-09-14T04:56:15.166Z,84.00
2022-09-14T04:58:51.261Z,84.00
2022-09-14T05:01:22.087Z,84.20
2022-09-14T05:03:49.931Z,84.30
2022-09-14T05:06:20.059Z,84.20
2022-09-14T05:08:47.603Z,84.00
2022-09-14T05:11:17.864Z,83.80
2022-09-14T05:13:49.501Z,83.80
2022-09-14T05:16:23.073Z,83.70
2022-09-14T05:18:51.107Z,83.70
2022-09-14T05:21:19.740Z,83.70
2022-09-14T05:23:46.987Z,83.70
2022-09-14T05:26:14.718Z,83.60
2022-09-14T05:28:42.026Z,83.50
2022-09-14T05:31:11.131Z,83.40
2022-09-14T05:33:38.116Z,83.30
2022-09-14T05:36:07.268Z,83.20
2022-09-14T05:38:36.144Z,83.20
2022-09-14T05:41:04.355Z,83.10
2022-09-14T05:43:31.582Z,83.00
2022-09-14T05:46:03.048Z,82.80
2022-09-14T05:48:34.321Z,82.60
2022-09-14T05:51:04.460Z,82.30
2022-09-14T05:53:31.780Z,82.10
2022-09-14T05:56:06.326Z,81.60
2022-09-14T05:58:34.221Z,80.80
2022-09-14T06:01:15.603Z,80.30
2022-09-14T06:03:43.705Z,79.90
2022-09-14T06:06:12.800Z,79.50
2022-09-14T06:08:40.079Z,78.90
2022-09-14T06:11:10.347Z,78.20
2022-09-14T06:13:37.988Z,77.60
2022-09-14T06:16:10.529Z,76.60
2022-09-14T06:18:38.972Z,75.60
2022-09-14T06:21:06.647Z,75.30
2022-09-14T06:23:34.274Z,74.90
2022-09-14T06:26:03.182Z,74.60
2022-09-14T06:28:30.848Z,74.30
2022-09-14T06:30:58.236Z,73.20
2022-09-14T06:33:25.319Z,71.70
2022-09-14T06:35:57.157Z,69.70
2022-09-14T06:38:25.015Z,68.60
2022-09-14T06:40:56.991Z,67.60
2022-09-14T06:43:29.327Z,66.00
2022-09-14T06:46:01.841Z,65.50
2022-09-14T06:48:38.027Z,63.70
2022-09-14T06:51:13.283Z,61.00
2022-09-14T06:53:40.654Z,58.70
2022-09-14T06:56:07.592Z,57.70
2022-09-14T06:58:35.415Z,56.40
2022-09-14T07:01:04.374Z,55.80
2022-09-14T07:03:32.927Z,55.10
2022-09-14T07:06:09.017Z,53.80
2022-09-14T07:08:37.240Z,52.10
2022-09-14T07:11:05.803Z,51.30
2022-09-14T07:13:33.491Z,50.40
2022-09-14T07:16:00.447Z,49.40
2022-09-14T07:18:28.435Z,48.80
2022-09-14T07:20:55.762Z,47.90
2022-09-14T07:23:22.754Z,46.70
2022-09-14T07:26:00.203Z,45.50
2022-09-14T07:28:27.639Z,43.30
2022-09-14T07:30:58.939Z,42.10
2022-09-14T07:33:26.388Z,42.20
2022-09-14T07:35:53.659Z,42.80
2022-09-14T07:38:41.535Z,43.70
2022-09-14T07:41:08.770Z,45.70
2022-09-14T07:43:36.205Z,47.70
2022-09-14T07:46:04.790Z,49.20
2022-09-14T07:48:33.331Z,51.30
2022-09-14T07:51:11.095Z,53.20
2022-09-14T07:53:40.633Z,54.20
2022-09-14T07:56:07.936Z,54.70
2022-09-14T07:58:35.601Z,55.00
2022-09-14T08:01:08.832Z,54.50
2022-09-14T08:03:40.229Z,54.20
2022-09-14T08:06:13.455Z,54.40
2022-09-14T08:08:42.835Z,54.10
2022-09-14T08:11:15.260Z,54.30
2022-09-14T08:13:46.053Z,53.10
2022-09-14T08:16:13.618Z,52.50
2022-09-14T08:18:40.803Z,52.10
2022-09-14T08:21:13.861Z,51.60
2022-09-14T08:23:41.716Z,49.80
2022-09-14T08:26:14.575Z,49.70
2022-09-14T08:28:42.402Z,50.00
2022-09-14T08:31:18.771Z,50.30
2022-09-14T08:33:48.440Z,50.40
2022-09-14T08:36:17.733Z,50.50
2022-09-14T08:38:45.343Z,51.00
2022-09-14T08:41:18.136Z,51.80
2022-09-14T08:43:45.826Z,53.30
2022-09-14T08:46:27.250Z,53.80
2022-09-14T08:48:54.558Z,53.80
2022-09-14T08:51:21.987Z,53.30
2022-09-14T08:53:52.471Z,52.50
2022-09-14T08:56:24.980Z,52.00
2022-09-14T08:59:00.801Z,51.80
2022-09-14T09:01:55.634Z,51.50
2022-09-14T09:04:33.779Z,51.60
2022-09-14T09:07:17.804Z,52.40
2022-09-14T09:09:51.012Z,52.00
2022-09-14T09:12:22.154Z,52.30
2022-09-14T09:14:55.704Z,52.60
2022-09-14T09:17:29.937Z,51.70
2022-09-14T09:20:05.731Z,51.30
2022-09-14T09:22:55.012Z,50.70
2022-09-14T09:25:27.226Z,51.20
2022-09-14T09:28:03.124Z,51.60
2022-09-14T09:30:30.403Z,52.20
2022-09-14T09:32:57.770Z,52.40
2022-09-14T09:35:43.821Z,52.50
2022-09-14T09:38:20.086Z,51.60
2022-09-14T09:41:00.490Z,50.80
2022-09-14T09:43:45.685Z,50.90
2022-09-14T09:46:14.923Z,50.50
2022-09-14T09:48:44.851Z,50.90
2022-09-14T09:51:14.828Z,51.40
2022-09-14T09:53:54.536Z,51.90
2022-09-14T09:56:28.107Z,51.90
2022-09-14T09:58:55.315Z,51.80
2022-09-14T10:01:23.217Z,50.50
2022-09-14T10:04:08.860Z,49.60
2022-09-14T10:06:44.242Z,48.60
2022-09-14T10:09:20.395Z,47.70
2022-09-14T10:11:49.316Z,46.80
2022-09-14T10:14:36.740Z,45.50
2022-09-14T10:17:22.648Z,43.10
2022-09-14T10:19:54.912Z,42.50
2022-09-14T10:22:32.060Z,44.30
2022-09-14T10:25:02.162Z,44.60
2022-09-14T10:27:41.917Z,43.60
2022-09-14T10:30:21.191Z,42.00
2022-09-14T10:33:06.359Z,39.90
2022-09-14T10:36:10.463Z,38.70
2022-09-14T10:39:01.254Z,38.00
2022-09-14T10:41:45.619Z,38.10
2022-09-14T10:44:32.130Z,36.70
2022-09-14T10:47:23.073Z,36.00
2022-09-14T10:50:04.973Z,36.10
2022-09-14T10:52:50.542Z,37.00
2022-09-14T10:55:52.820Z,38.20
2022-09-14T10:58:28.631Z,40.10
2022-09-14T11:01:13.323Z,42.00
2022-09-14T11:03:55.694Z,43.00
2022-09-14T11:06:25.420Z,43.00
2022-09-14T11:09:06.658Z,41.50
2022-09-14T11:11:45.981Z,40.20
2022-09-14T11:14:22.081Z,40.10
2022-09-14T11:17:16.423Z,40.60
2022-09-14T11:20:04.411Z,41.00
2022-09-14T11:22:39.276Z,40.20
2022-09-14T11:25:12.457Z,39.90
2022-09-14T11:27:57.584Z,40.70
2022-09-14T11:30:39.457Z,40.40
2022-09-14T11:33:19.248Z,39.80
2022-09-14T11:36:10.925Z,39.70
2022-09-14T11:38:46.527Z,40.30
2022-09-14T11:41:32.407Z,41.40
2022-09-14T11:44:16.516Z,42.50
2022-09-14T11:47:00.479Z,42.00
2022-09-14T11:49:34.443Z,41.20
2022-09-14T11:52:07.652Z,40.60
2022-09-14T11:54:41.531Z,40.20
2022-09-14T11:57:30.481Z,39.50
2022-09-14T12:00:06.824Z,38.50
2022-09-14T12:02:38.057Z,37.90
2022-09-14T12:05:05.184Z,40.70
2022-09-14T12:07:45.457Z,41.40
2022-09-14T12:10:22.038Z,42.50
2022-09-14T12:12:55.672Z,44.30
2022-09-14T12:15:26.101Z,46.10
2022-09-14T12:18:08.155Z,47.60
2022-09-14T12:20:40.987Z,49.30
2022-09-14T12:23:22.979Z,49.70
2022-09-14T12:25:58.303Z,50.40
2022-09-14T12:28:40.472Z,51.00
2022-09-14T12:31:28.598Z,51.60
2022-09-14T12:34:06.123Z,51.50
2022-09-14T12:36:33.266Z,51.40
2022-09-14T12:39:00.468Z,51.40
2022-09-14T12:41:28.067Z,51.00
2022-09-14T12:43:56.006Z,51.20
2022-09-14T12:46:23.016Z,51.60
2022-09-14T12:49:00.195Z,51.70
2022-09-14T12:51:32.688Z,51.60
2022-09-14T12:54:24.793Z,51.30
2022-09-14T12:57:19.946Z,50.80
2022-09-14T12:59:56.037Z,50.90
2022-09-14T13:02:52.092Z,50.60
2022-09-14T13:05:26.929Z,48.50
2022-09-14T13:07:55.220Z,46.70
2022-09-14T13:10:33.012Z,45.60
2022-09-14T13:13:02.833Z,44.10
2022-09-14T13:15:36.904Z,42.40
2022-09-14T13:18:24.829Z,41.40
2022-09-14T13:20:53.955Z,40.70
2022-09-14T13:23:33.638Z,42.10
2022-09-14T13:26:08.233Z,44.10
2022-09-14T13:28:35.472Z,44.70
2022-09-14T13:31:02.919Z,45.70
2022-09-14T13:33:30.481Z,46.10
2022-09-14T13:36:31.019Z,46.70
2022-09-14T13:39:33.294Z,46.90
2022-09-14T13:42:09.939Z,47.70
2022-09-14T13:44:55.827Z,47.00
2022-09-14T13:47:46.438Z,47.10
2022-09-14T13:50:16.717Z,48.00
2022-09-14T13:53:01.087Z,48.70
2022-09-14T13:55:43.534Z,49.20
2022-09-14T13:58:14.945Z,49.70
2022-09-14T14:01:00.710Z,50.20
2022-09-14T14:03:29.550Z,50.10
2022-09-14T14:05:57.192Z,50.60
2022-09-14T14:08:38.441Z,51.50
2022-09-14T14:11:07.617Z,51.80
2022-09-14T14:13:37.372Z,52.20
2022-09-14T14:16:24.957Z,52.20
2022-09-14T14:18:55.983Z,52.00
2022-09-14T14:21:23.038Z,51.90
2022-09-14T14:24:12.610Z,51.80
2022-09-14T14:26:47.220Z,51.80
2022-09-14T14:29:16.244Z,52.00
2022-09-14T14:31:43.855Z,52.10
2022-09-14T14:34:19.062Z,52.20
2022-09-14T14:36:48.061Z,52.70
2022-09-14T14:39:15.072Z,52.90
2022-09-14T14:41:42.483Z,53.20
2022-09-14T14:44:19.416Z,53.70
2022-09-14T14:46:47.339Z,53.80
2022-09-14T14:49:15.871Z,53.90
2022-09-14T14:51:43.228Z,54.40
2022-09-14T14:54:11.165Z,54.60
2022-09-14T14:56:39.059Z,54.40
2022-09-14T14:59:21.184Z,54.80
2022-09-14T15:01:50.104Z,55.50
2022-09-14T15:04:17.316Z,55.70
2022-09-14T15:06:46.255Z,55.90
2022-09-14T15:09:19.384Z,55.70
2022-09-14T15:11:47.434Z,56.10
2022-09-14T15:14:17.539Z,56.40
2022-09-14T15:16:45.558Z,57.00
2022-09-14T15:19:12.979Z,57.10
2022-09-14T15:21:41.432Z,57.70
2022-09-14T15:24:09.912Z,58.50
2022-09-14T15:26:38.141Z,59.30
2022-09-14T15:29:05.658Z,58.60
2022-09-14T15:31:33.181Z,58.20
2022-09-14T15:34:00.378Z,58.50
2022-09-14T15:36:51.095Z,58.10
2022-09-14T15:39:21.898Z,58.90
2022-09-14T15:41:49.680Z,60.80
2022-09-14T15:44:16.941Z,62.20
2022-09-14T15:46:47.799Z,63.10
2022-09-14T15:49:20.564Z,64.20
2022-09-14T15:51:50.506Z,64.40
2022-09-14T15:54:19.775Z,64.80
2022-09-14T15:56:55.845Z,66.50
2022-09-14T15:59:23.345Z,68.00
2022-09-14T16:01:50.729Z,69.20
2022-09-14T16:04:18.822Z,70.00
2022-09-14T16:06:46.432Z,70.40
2022-09-14T16:09:15.069Z,71.00
2022-09-14T16:11:42.710Z,72.00
2022-09-14T16:14:10.860Z,73.40
2022-09-14T16:16:39.247Z,74.10
2022-09-14T16:19:08.682Z,74.40
2022-09-14T16:21:36.105Z,74.70
2022-09-14T16:24:05.363Z,74.80
2022-09-14T16:26:34.615Z,74.90
2022-09-14T16:29:02.327Z,74.70
2022-09-14T16:31:50.733Z,74.90
2022-09-14T16:34:23.914Z,75.50
2022-09-14T16:36:51.403Z,76.60
2022-09-14T16:39:25.340Z,77.10
2022-09-14T16:41:56.195Z,77.50
2022-09-14T16:44:25.609Z,77.90
2022-09-14T16:46:55.097Z,78.20
2022-09-14T16:49:26.568Z,78.50
2022-09-14T16:51:55.636Z,78.50
2022-09-14T16:54:24.147Z,78.60
2022-09-14T16:56:51.464Z,78.80
2022-09-14T16:59:20.557Z,78.90
2022-09-14T17:01:54.022Z,79.10
2022-09-14T17:04:22.791Z,79.20
2022-09-14T17:06:51.641Z,79.10
2022-09-14T17:09:25.519Z,79.30
2022-09-14T17:11:54.281Z,79.40
2022-09-14T17:14:25.623Z,79.50
2022-09-14T17:16:53.110Z,79.90
2022-09-14T17:19:21.097Z,80.20
2022-09-14T17:21:48.670Z,80.70
2022-09-14T17:24:17.364Z,81.10
2022-09-14T17:26:45.325Z,81.40
2022-09-14T17:29:13.076Z,81.50
2022-09-14T17:31:41.993Z,81.50
2022-09-14T17:34:11.448Z,81.70
2022-09-14T17:36:38.888Z,82.10
2022-09-14T17:39:11.679Z,82.40
2022-09-14T17:41:39.971Z,82.60
2022-09-14T17:44:07.958Z,82.20
2022-09-14T17:46:38.475Z,83.80
2022-09-14T17:49:12.685Z,83.70
2022-09-14T17:51:40.184Z,84.10
2022-09-14T17:54:07.316Z,84.10
2022-09-14T17:56:34.216Z,84.40
2022-09-14T17:59:11.612Z,84.70
2022-09-14T18:01:38.636Z,84.90
2022-09-14T18:04:10.000Z,84.90
2022-09-14T18:06:40.241Z,85.00
2022-09-14T18:09:11.536Z,85.10
2022-09-14T18:11:38.554Z,85.20
2022-09-14T18:14:06.102Z,85.30
2022-09-14T18:16:33.626Z,85.50
2022-09-14T18:19:00.630Z,85.60
2022-09-14T18:21:27.988Z,85.60
2022-09-14T18:23:56.063Z,85.70
2022-09-14T18:26:24.729Z,85.70
2022-09-14T18:28:55.944Z,85.60
2022-09-14T18:31:23.155Z,85.50
2022-09-14T18:33:52.310Z,85.30
2022-09-14T18:36:20.500Z,85.30
2022-09-14T18:38:48.733Z,85.30
2022-09-14T18:41:17.097Z,85.30
2022-09-14T18:43:49.689Z,85.40
2022-09-14T18:46:18.100Z,85.50
2022-09-14T18:48:45.148Z,85.40
2022-09-14T18:51:14.468Z,85.20
2022-09-14T18:53:41.682Z,85.10
2022-09-14T18:56:13.505Z,84.90
2022-09-14T18:58:43.675Z,84.60
2022-09-14T19:01:11.666Z,84.40
2022-09-14T19:03:40.799Z,84.30
2022-09-14T19:06:10.455Z,84.30
2022-09-14T19:08:37.736Z,84.20
2022-09-14T19:11:16.808Z,84.10
2022-09-14T19:13:45.103Z,84.10
2022-09-14T19:16:17.791Z,84.00
2022-09-14T19:18:46.405Z,84.00
2022-09-14T19:21:16.474Z,84.10
2022-09-14T19:23:43.791Z,84.00
2022-09-14T19:26:16.848Z,83.80
2022-09-14T19:28:44.572Z,83.60
2022-09-14T19:31:17.416Z,83.60
2022-09-14T19:33:45.837Z,83.50
2022-09-14T19:36:16.252Z,83.50
2022-09-14T19:38:43.576Z,83.50
2022-09-14T19:41:10.755Z,83.40
2022-09-14T19:43:37.870Z,83.40
2022-09-14T19:46:13.462Z,83.50
2022-09-14T19:48:41.414Z,83.30
2022-09-14T19:51:12.779Z,83.40
2022-09-14T19:53:39.874Z,83.40
2022-09-14T19:56:09.231Z,83.30
2022-09-14T19:58:37.978Z,83.20
2022-09-14T20:01:06.034Z,83.10
2022-09-14T20:03:33.503Z,82.90
2022-09-14T20:06:01.405Z,83.10
2022-09-14T20:08:29.180Z,83.40
2022-09-14T20:10:56.116Z,83.50
2022-09-14T20:13:23.110Z,83.60
2022-09-14T20:15:50.049Z,83.60
2022-09-14T20:18:17.038Z,83.70
2022-09-14T20:20:43.998Z,83.70
2022-09-14T20:23:10.931Z,83.50
2022-09-14T20:25:37.894Z,83.50
2022-09-14T20:28:04.856Z,83.50
2022-09-14T20:30:31.831Z,83.50
2022-09-14T20:32:58.812Z,83.50
2022-09-14T20:35:25.692Z,83.50
2022-09-14T20:37:52.631Z,83.60
2022-09-14T20:40:19.678Z,83.60
2022-09-14T20:42:46.663Z,83.80
2022-09-14T20:45:15.290Z,83.80
2022-09-14T20:47:44.183Z,83.90
2022-09-14T20:50:11.092Z,83.90
2022-09-14T20:52:38.084Z,84.00
2022-09-14T20:55:06.227Z,84.10
2022-09-14T20:57:33.193Z,84.10
2022-09-14T21:00:00.140Z,84.10
2022-09-14T21:02:27.134Z,84.10
2022-09-14T21:04:54.092Z,84.00
2022-09-14T21:07:22.266Z,84.00
2022-09-14T21:09:49.417Z,84.10
2022-09-14T21:12:16.666Z,84.10
2022-09-14T21:14:45.272Z,84.30
2022-09-14T21:17:12.199Z,84.30
2022-09-14T21:19:39.189Z,84.40
2022-09-14T21:22:06.421Z,84.50
2022-09-14T21:24:35.085Z,84.50
2022-09-14T21:27:02.247Z,84.60
2022-09-14T21:29:29.298Z,84.60
2022-09-14T21:31:56.191Z,84.60
2022-09-14T21:34:23.177Z,84.60
2022-09-14T21:36:51.720Z,84.70
2022-09-14T21:39:23.147Z,84.60
2022-09-14T21:41:57.290Z,84.70
2022-09-14T21:44:33.992Z,84.70
2022-09-14T21:47:02.304Z,84.90
2022-09-14T21:49:29.334Z,84.90
2022-09-14T21:51:56.284Z,84.90
2022-09-14T21:54:23.371Z,84.90
2022-09-14T21:56:50.261Z,84.90
2022-09-14T21:59:19.463Z,84.90
2022-09-14T22:01:47.711Z,84.90
2022-09-14T22:04:18.778Z,84.90
2022-09-14T22:06:46.729Z,85.00
2022-09-14T22:09:15.827Z,85.00
2022-09-14T22:11:42.952Z,84.90
2022-09-14T22:14:18.407Z,84.90
2022-09-14T22:16:45.976Z,85.00
2022-09-14T22:19:17.662Z,85.20
2022-09-14T22:21:44.835Z,85.20
2022-09-14T22:24:15.464Z,85.30
2022-09-14T22:26:43.722Z,85.20
2022-09-14T22:29:11.269Z,85.20
2022-09-14T22:31:40.215Z,85.10
2022-09-14T22:34:08.335Z,85.20
2022-09-14T22:36:35.732Z,85.20
2022-09-14T22:39:04.175Z,85.20
2022-09-14T22:41:31.359Z,85.20
2022-09-14T22:43:58.365Z,85.20
2022-09-14T22:46:25.598Z,85.20
2022-09-14T22:48:54.620Z,85.10
2022-09-14T22:51:24.555Z,85.30
2022-09-14T22:53:52.721Z,85.30
2022-09-14T22:56:25.511Z,85.40
2022-09-14T22:58:53.370Z,85.50
2022-09-14T23:01:26.438Z,85.50
2022-09-14T23:04:03.651Z,85.60
2022-09-14T23:06:33.856Z,85.70
2022-09-14T23:09:01.311Z,85.70
2022-09-14T23:11:29.288Z,85.80
2022-09-14T23:13:57.553Z,85.70
2022-09-14T23:16:26.422Z,85.70
2022-09-14T23:18:57.889Z,85.70
2022-09-14T23:21:25.723Z,85.70
2022-09-14T23:23:54.207Z,85.80
2022-09-14T23:26:22.953Z,85.90
2022-09-14T23:29:02.438Z,85.90
2022-09-14T23:31:30.831Z,86.00
2022-09-14T23:34:00.812Z,86.00
2022-09-14T23:36:28.111Z,86.10
2022-09-14T23:38:55.061Z,86.20
2022-09-14T23:41:24.109Z,86.20
2022-09-14T23:43:51.922Z,86.40
2022-09-14T23:46:19.607Z,86.60
2022-09-14T23:48:47.126Z,86.70
2022-09-14T23:51:14.342Z,86.90
2022-09-14T23:53:41.972Z,87.10
2022-09-14T23:56:09.298Z,87.10
2022-09-14T23:58:36.714Z,87.20
